createdAt,value
2023-01-29T00:00:46.843Z,-0.30
2023-01-29T00:02:52.299Z,-0.30
2023-01-29T00:05:07.353Z,-0.40
2023-01-29T00:07:22.531Z,-0.40
2023-01-29T00:09:27.785Z,-0.40
2023-01-29T00:11:33.142Z,-0.40
2023-01-29T00:13:38.692Z,-0.40
2023-01-29T00:15:43.571Z,-0.50
2023-01-29T00:17:48.702Z,-0.60
2023-01-29T00:19:53.580Z,-0.70
2023-01-29T00:22:01.421Z,-0.50
2023-01-29T00:24:06.860Z,-0.40
2023-01-29T00:26:13.141Z,-0.40
2023-01-29T00:28:22.394Z,-0.40
2023-01-29T00:30:28.181Z,-0.40
2023-01-29T00:32:35.679Z,-0.50
2023-01-29T00:34:40.930Z,-0.50
2023-01-29T00:36:46.715Z,-0.60
2023-01-29T00:38:58.937Z,-0.60
2023-01-29T00:41:22.135Z,-0.60
2023-01-29T00:43:42.613Z,-0.50
2023-01-29T00:45:47.593Z,-0.60
2023-01-29T00:47:52.611Z,-0.70
2023-01-29T00:49:58.061Z,-0.60
2023-01-29T00:52:15.448Z,-0.60
2023-01-29T00:54:23.248Z,-0.50
2023-01-29T00:56:28.748Z,-0.50
2023-01-29T00:58:34.491Z,-0.50
2023-01-29T01:00:39.521Z,-0.40
2023-01-29T01:02:57.379Z,-0.40
2023-01-29T01:05:02.824Z,-0.40
2023-01-29T01:09:27.714Z,-0.50
2023-01-29T01:11:36.529Z,-0.50
2023-01-29T01:13:41.399Z,-0.60
2023-01-29T01:15:46.684Z,-0.70
2023-01-29T01:17:54.352Z,-0.60
2023-01-29T01:19:59.797Z,-0.60
2023-01-29T01:22:05.038Z,-0.50
2023-01-29T01:24:10.229Z,-0.50
2023-01-29T01:26:17.185Z,-0.50
2023-01-29T01:28:24.718Z,-0.50
2023-01-29T01:30:30.210Z,-0.50
2023-01-29T01:32:36.140Z,-0.50
2023-01-29T01:34:41.097Z,-0.50
2023-01-29T01:36:46.453Z,-0.50
2023-01-29T01:38:51.544Z,-0.60
2023-01-29T01:40:57.273Z,-0.70
2023-01-29T01:43:05.598Z,-0.90
2023-01-29T01:45:24.711Z,-0.90
2023-01-29T01:47:37.288Z,-0.90
2023-01-29T01:49:42.293Z,-0.90
2023-01-29T01:51:52.925Z,-0.80
2023-01-29T01:54:02.741Z,-0.90
2023-01-29T01:56:13.414Z,-1.00
2023-01-29T01:58:28.443Z,-1.10
2023-01-29T02:00:36.243Z,-1.00
2023-01-29T02:02:56.273Z,-0.90
2023-01-29T02:05:14.099Z,-0.90
2023-01-29T02:07:31.654Z,-1.00
2023-01-29T02:09:44.478Z,-1.00
2023-01-29T02:11:49.987Z,-0.90
2023-01-29T02:13:56.259Z,-0.90
2023-01-29T02:16:06.345Z,-0.90
2023-01-29T02:18:12.682Z,-0.90
2023-01-29T02:20:25.925Z,-0.90
2023-01-29T02:22:56.779Z,-1.00
2023-01-29T02:25:36.488Z,-1.10
2023-01-29T02:28:22.457Z,-1.00
2023-01-29T02:30:41.670Z,-1.00
2023-01-29T02:32:58.729Z,-1.10
2023-01-29T02:35:32.088Z,-1.00
2023-01-29T02:37:42.501Z,-1.10
2023-01-29T02:39:57.486Z,-1.20
2023-01-29T02:42:12.294Z,-1.20
2023-01-29T02:44:26.860Z,-1.20
2023-01-29T02:46:40.939Z,-1.30
2023-01-29T02:48:54.632Z,-1.20
2023-01-29T02:51:04.913Z,-1.30
2023-01-29T02:53:17.915Z,-1.30
2023-01-29T02:55:28.913Z,-1.30
2023-01-29T02:57:38.270Z,-1.30
2023-01-29T02:59:48.600Z,-1.40
2023-01-29T03:02:01.745Z,-1.40
2023-01-29T03:04:14.117Z,-1.40
2023-01-29T03:06:26.522Z,-1.50
2023-01-29T03:08:43.173Z,-1.50
2023-01-29T03:10:56.486Z,-1.60
2023-01-29T03:13:06.192Z,-1.40
2023-01-29T03:15:17.749Z,-1.50
2023-01-29T03:17:44.674Z,-1.40
2023-01-29T03:19:52.071Z,-1.30
2023-01-29T03:22:04.439Z,-1.30
2023-01-29T03:24:24.519Z,-1.30
2023-01-29T03:26:43.704Z,-1.30
2023-01-29T03:29:03.307Z,-1.30
2023-01-29T03:31:25.665Z,-1.40
2023-01-29T03:33:45.171Z,-1.30
2023-01-29T03:35:56.720Z,-1.30
2023-01-29T03:38:02.299Z,-1.30
2023-01-29T03:40:10.998Z,-1.30
2023-01-29T03:42:26.048Z,-1.30
2023-01-29T03:44:41.167Z,-1.30
2023-01-29T03:46:59.032Z,-1.40
2023-01-29T03:49:18.217Z,-1.40
2023-01-29T03:51:31.254Z,-1.40
2023-01-29T03:53:47.298Z,-1.40
2023-01-29T03:56:02.356Z,-1.60
2023-01-29T03:58:22.306Z,-1.60
2023-01-29T04:00:34.987Z,-1.60
2023-01-29T04:02:50.615Z,-1.70
2023-01-29T04:05:03.189Z,-1.70
2023-01-29T04:07:14.902Z,-1.60
2023-01-29T04:09:25.435Z,-1.50
2023-01-29T04:11:32.062Z,-1.50
2023-01-29T04:13:39.982Z,-1.60
2023-01-29T04:15:49.434Z,-1.60
2023-01-29T04:17:58.497Z,-1.60
2023-01-29T04:20:27.856Z,-1.70
2023-01-29T04:22:37.220Z,-1.80
2023-01-29T04:24:43.125Z,-1.70
2023-01-29T04:27:06.967Z,-1.60
2023-01-29T04:29:30.240Z,-1.60
2023-01-29T04:31:47.934Z,-1.90
2023-01-29T04:34:06.305Z,-2.10
2023-01-29T04:36:31.215Z,-2.00
2023-01-29T04:38:53.514Z,-2.00
2023-01-29T04:41:08.590Z,-2.10
2023-01-29T04:43:25.752Z,-2.30
2023-01-29T04:45:42.116Z,-2.20
2023-01-29T04:47:56.787Z,-2.00
2023-01-29T04:50:15.591Z,-2.00
2023-01-29T04:52:33.977Z,-2.00
2023-01-29T04:55:04.315Z,-1.90
2023-01-29T04:57:17.213Z,-1.90
2023-01-29T04:59:32.208Z,-1.80
2023-01-29T05:01:38.671Z,-1.90
2023-01-29T05:03:47.882Z,-1.90
2023-01-29T05:05:57.117Z,-1.90
2023-01-29T05:08:07.804Z,-1.80
2023-01-29T05:10:17.025Z,-1.90
2023-01-29T05:12:22.427Z,-1.80
2023-01-29T05:14:30.524Z,-1.80
2023-01-29T05:16:43.992Z,-2.00
2023-01-29T05:18:49.988Z,-2.10
2023-01-29T05:20:56.478Z,-2.00
2023-01-29T05:23:04.359Z,-1.80
2023-01-29T05:25:24.773Z,-1.90
2023-01-29T05:27:48.351Z,-1.90
2023-01-29T05:29:53.307Z,-2.00
2023-01-29T05:31:58.747Z,-1.90
2023-01-29T05:34:04.220Z,-1.80
2023-01-29T05:36:13.057Z,-1.80
2023-01-29T05:38:22.060Z,-1.80
2023-01-29T05:40:27.916Z,-1.70
2023-01-29T05:42:32.795Z,-1.60
2023-01-29T05:44:38.056Z,-1.70
2023-01-29T05:46:43.874Z,-1.70
2023-01-29T05:48:49.335Z,-1.70
2023-01-29T05:50:54.524Z,-1.90
2023-01-29T05:53:00.878Z,-2.00
2023-01-29T05:55:11.572Z,-1.90
2023-01-29T05:57:18.254Z,-1.70
2023-01-29T05:59:23.559Z,-1.80
2023-01-29T06:01:29.000Z,-1.80
2023-01-29T06:03:34.339Z,-1.70
2023-01-29T06:05:41.392Z,-1.70
2023-01-29T06:07:47.658Z,-1.70
2023-01-29T06:09:55.448Z,-1.70
2023-01-29T06:12:02.941Z,-1.60
2023-01-29T06:14:07.863Z,-1.60
2023-01-29T06:16:14.628Z,-1.70
2023-01-29T06:18:19.725Z,-1.70
2023-01-29T06:20:25.194Z,-1.80
2023-01-29T06:22:30.439Z,-1.80
2023-01-29T06:24:35.388Z,-1.70
2023-01-29T06:26:41.777Z,-1.70
2023-01-29T06:28:52.273Z,-1.70
2023-01-29T06:31:11.441Z,-1.70
2023-01-29T06:33:21.817Z,-1.80
2023-01-29T06:35:26.761Z,-1.70
2023-01-29T06:37:32.130Z,-1.80
2023-01-29T06:39:39.647Z,-1.70
2023-01-29T06:41:45.457Z,-1.80
2023-01-29T06:43:52.908Z,-1.80
2023-01-29T06:46:00.423Z,-1.80
2023-01-29T06:48:05.346Z,-1.80
2023-01-29T06:50:11.252Z,-1.80
2023-01-29T06:52:16.203Z,-1.80
2023-01-29T06:54:21.069Z,-1.80
2023-01-29T06:56:27.203Z,-1.80
2023-01-29T06:58:32.176Z,-1.80
2023-01-29T07:00:40.740Z,-1.80
2023-01-29T07:02:45.623Z,-1.80
2023-01-29T07:04:51.067Z,-1.80
2023-01-29T07:06:56.101Z,-1.80
2023-01-29T07:09:03.066Z,-2.00
2023-01-29T07:11:09.274Z,-2.20
2023-01-29T07:13:14.362Z,-2.20
2023-01-29T07:15:21.746Z,-2.10
2023-01-29T07:17:29.191Z,-2.10
2023-01-29T07:19:34.781Z,-2.00
2023-01-29T07:21:40.687Z,-1.90
2023-01-29T07:23:45.632Z,-1.90
2023-01-29T07:25:52.069Z,-2.00
2023-01-29T07:28:00.996Z,-1.90
2023-01-29T07:30:06.608Z,-1.90
2023-01-29T07:32:11.559Z,-1.90
2023-01-29T07:34:19.064Z,-1.90
2023-01-29T07:36:24.203Z,-1.90
2023-01-29T07:38:29.142Z,-1.80
2023-01-29T07:40:34.211Z,-2.00
2023-01-29T07:42:40.412Z,-2.20
2023-01-29T07:44:45.678Z,-2.20
2023-01-29T07:46:50.541Z,-2.30
2023-01-29T07:48:55.807Z,-2.10
2023-01-29T07:51:04.218Z,-2.10
2023-01-29T07:53:09.277Z,-2.10
2023-01-29T07:55:14.577Z,-2.30
2023-01-29T07:57:22.739Z,-2.20
2023-01-29T07:59:27.703Z,-2.20
2023-01-29T08:01:32.670Z,-2.40
2023-01-29T08:03:37.790Z,-2.30
2023-01-29T08:05:42.846Z,-2.40
2023-01-29T08:08:06.446Z,-2.30
2023-01-29T08:10:13.953Z,-2.10
2023-01-29T08:12:19.506Z,-2.00
2023-01-29T08:14:24.884Z,-1.80
2023-01-29T08:16:30.799Z,-1.80
2023-01-29T08:18:35.894Z,-1.80
2023-01-29T08:20:41.373Z,-1.80
2023-01-29T08:22:46.482Z,-1.80
2023-01-29T08:25:06.138Z,-1.90
2023-01-29T08:27:12.895Z,-2.00
2023-01-29T08:29:18.925Z,-1.80
2023-01-29T08:31:24.104Z,-1.80
2023-01-29T08:33:38.759Z,-1.70
2023-01-29T08:35:44.315Z,-1.60
2023-01-29T08:37:58.413Z,-1.60
2023-01-29T08:40:06.216Z,-1.50
2023-01-29T08:42:11.146Z,-1.50
2023-01-29T08:44:16.203Z,-1.40
2023-01-29T08:46:21.159Z,-1.40
2023-01-29T08:48:26.925Z,-1.50
2023-01-29T08:50:33.123Z,-1.50
2023-01-29T08:52:38.002Z,-1.60
2023-01-29T08:54:43.375Z,-1.50
2023-01-29T08:56:50.822Z,-1.60
2023-01-29T08:58:58.252Z,-1.60
2023-01-29T09:01:12.576Z,-1.70
2023-01-29T09:03:17.527Z,-1.60
2023-01-29T09:05:23.625Z,-1.60
2023-01-29T09:07:28.493Z,-1.50
2023-01-29T09:09:33.743Z,-1.40
2023-01-29T09:11:41.789Z,-1.30
2023-01-29T09:13:49.246Z,-1.40
2023-01-29T09:15:54.191Z,-1.50
2023-01-29T09:17:59.082Z,-1.50
2023-01-29T09:20:06.054Z,-1.60
2023-01-29T09:22:12.754Z,-1.60
2023-01-29T09:24:17.812Z,-1.50
2023-01-29T09:26:22.819Z,-1.40
2023-01-29T09:28:27.779Z,-1.40
2023-01-29T09:30:37.788Z,-1.50
2023-01-29T09:32:53.214Z,-1.50
2023-01-29T09:34:58.968Z,-1.40
2023-01-29T09:37:04.152Z,-1.30
2023-01-29T09:39:09.231Z,-1.30
2023-01-29T09:41:30.253Z,-1.20
2023-01-29T09:43:46.996Z,-1.40
2023-01-29T09:46:01.030Z,-1.50
2023-01-29T09:48:08.813Z,-1.50
2023-01-29T09:50:21.264Z,-1.40
2023-01-29T09:52:30.844Z,-1.30
2023-01-29T09:54:46.448Z,-1.20
2023-01-29T09:56:53.936Z,-1.20
2023-01-29T09:59:02.073Z,-1.10
2023-01-29T10:01:19.978Z,-1.00
2023-01-29T10:03:44.084Z,-1.00
2023-01-29T10:06:08.277Z,-1.00
2023-01-29T10:08:43.998Z,-0.90
2023-01-29T10:10:54.822Z,-0.90
2023-01-29T10:13:13.716Z,-0.80
2023-01-29T10:15:35.781Z,-0.70
2023-01-29T10:18:05.312Z,-0.70
2023-01-29T10:20:55.841Z,-0.60
2023-01-29T10:23:18.285Z,-0.60
2023-01-29T10:25:25.638Z,-0.60
2023-01-29T10:27:38.552Z,-0.60
2023-01-29T10:29:46.922Z,-0.60
2023-01-29T10:31:55.496Z,-0.60
2023-01-29T10:34:08.022Z,-0.60
2023-01-29T10:36:22.873Z,-0.60
2023-01-29T10:38:44.817Z,-0.60
2023-01-29T10:40:57.456Z,-0.60
2023-01-29T10:43:11.565Z,-0.50
2023-01-29T10:45:29.625Z,-0.60
2023-01-29T10:48:19.038Z,-0.70
2023-01-29T10:50:45.299Z,-0.60
2023-01-29T10:53:33.095Z,-0.40
2023-01-29T10:55:53.836Z,-0.30
2023-01-29T10:58:10.759Z,-0.30
2023-01-29T11:00:23.813Z,-0.20
2023-01-29T11:02:28.729Z,-0.10
2023-01-29T11:04:35.323Z,-0.20
2023-01-29T11:06:43.279Z,-0.40
2023-01-29T11:08:57.816Z,-0.20
2023-01-29T11:11:11.539Z,-0.20
2023-01-29T11:13:19.340Z,-0.20
2023-01-29T11:15:30.786Z,-0.30
2023-01-29T11:17:36.409Z,-0.50
2023-01-29T11:19:46.145Z,-0.30
2023-01-29T11:22:04.391Z,-0.20
2023-01-29T11:24:18.757Z,0.00
2023-01-29T11:26:26.369Z,-0.20
2023-01-29T11:28:43.331Z,-0.20
2023-01-29T11:30:48.396Z,-0.10
2023-01-29T11:33:01.313Z,-0.20
2023-01-29T11:35:22.646Z,0.00
2023-01-29T11:37:37.542Z,0.20
2023-01-29T11:39:47.643Z,0.30
2023-01-29T11:41:58.364Z,0.30
2023-01-29T11:44:04.174Z,0.40
2023-01-29T11:46:16.161Z,0.30
2023-01-29T11:48:24.556Z,0.40
2023-01-29T11:50:32.944Z,0.30
2023-01-29T11:52:43.980Z,0.30
2023-01-29T11:54:53.726Z,0.10
2023-01-29T11:56:59.470Z,0.30
2023-01-29T11:59:05.953Z,0.30
2023-01-29T12:01:12.529Z,0.40
2023-01-29T12:03:25.215Z,0.50
2023-01-29T12:05:30.956Z,0.10
2023-01-29T12:07:36.940Z,-0.10
2023-01-29T12:09:51.726Z,0.20
2023-01-29T12:11:57.519Z,0.20
2023-01-29T12:14:08.399Z,0.20
2023-01-29T12:16:22.996Z,0.30
2023-01-29T12:18:35.812Z,0.40
2023-01-29T12:20:46.466Z,0.40
2023-01-29T12:23:01.154Z,0.30
2023-01-29T12:25:19.968Z,0.20
2023-01-29T12:27:31.410Z,0.20
2023-01-29T12:29:47.840Z,0.00
2023-01-29T12:32:01.984Z,0.20
2023-01-29T12:34:18.938Z,0.30
2023-01-29T12:36:30.895Z,0.30
2023-01-29T12:38:37.197Z,0.10
2023-01-29T12:40:49.741Z,0.10
2023-01-29T12:43:01.900Z,0.30
2023-01-29T12:45:12.753Z,0.50
2023-01-29T12:47:23.817Z,0.50
2023-01-29T12:49:33.050Z,0.60
2023-01-29T12:51:44.566Z,0.30
2023-01-29T12:53:57.780Z,0.10
2023-01-29T12:56:12.781Z,0.30
2023-01-29T12:58:27.759Z,0.60
2023-01-29T13:00:39.140Z,0.60
2023-01-29T13:02:52.869Z,0.60
2023-01-29T13:05:05.531Z,0.60
2023-01-29T13:07:18.954Z,0.80
2023-01-29T13:09:29.752Z,0.70
2023-01-29T13:11:44.082Z,0.90
2023-01-29T13:13:55.673Z,0.70
2023-01-29T13:16:02.341Z,0.70
2023-01-29T13:18:34.506Z,0.70
2023-01-29T13:20:41.496Z,0.90
2023-01-29T13:22:49.249Z,1.20
2023-01-29T13:25:04.508Z,1.30
2023-01-29T13:27:25.230Z,1.30
2023-01-29T13:29:33.031Z,1.50
2023-01-29T13:31:41.326Z,1.40
2023-01-29T13:33:54.286Z,1.50
2023-01-29T13:36:02.989Z,1.30
2023-01-29T13:38:18.265Z,1.40
2023-01-29T13:40:28.357Z,1.40
2023-01-29T13:42:45.558Z,1.50
2023-01-29T13:44:53.840Z,1.60
2023-01-29T13:47:02.089Z,1.50
2023-01-29T13:49:07.391Z,1.50
2023-01-29T13:51:20.766Z,1.60
2023-01-29T13:53:30.296Z,1.40
2023-01-29T13:55:39.147Z,1.60
2023-01-29T13:57:58.187Z,1.30
2023-01-29T14:00:03.394Z,1.30
2023-01-29T14:02:26.027Z,1.20
2023-01-29T14:04:34.661Z,1.30
2023-01-29T14:06:50.126Z,1.30
2023-01-29T14:08:55.003Z,1.30
2023-01-29T14:11:38.790Z,1.40
2023-01-29T14:13:49.063Z,1.40
2023-01-29T14:16:38.064Z,1.10
2023-01-29T14:18:57.390Z,1.40
2023-01-29T14:21:08.398Z,1.50
2023-01-29T14:23:48.162Z,1.30
2023-01-29T14:25:54.293Z,1.30
2023-01-29T14:28:00.733Z,1.20
2023-01-29T14:30:12.437Z,1.50
2023-01-29T14:32:24.996Z,1.80
2023-01-29T14:34:34.409Z,1.50
2023-01-29T14:36:43.671Z,1.70
2023-01-29T14:38:53.772Z,2.10
2023-01-29T14:41:26.077Z,1.90
2023-01-29T14:43:32.186Z,1.50
2023-01-29T14:45:41.925Z,1.40
2023-01-29T14:48:39.231Z,1.30
2023-01-29T14:51:02.119Z,1.20
2023-01-29T14:53:14.652Z,1.20
2023-01-29T14:55:29.657Z,1.20
2023-01-29T14:57:36.089Z,1.30
2023-01-29T14:59:56.909Z,1.20
2023-01-29T15:02:15.862Z,1.40
2023-01-29T15:04:28.121Z,1.40
2023-01-29T15:06:42.177Z,1.40
2023-01-29T15:08:56.430Z,1.30
2023-01-29T15:11:18.184Z,1.30
2023-01-29T15:13:34.388Z,1.10
2023-01-29T15:15:46.613Z,1.10
2023-01-29T15:18:04.209Z,1.00
2023-01-29T15:20:33.733Z,1.20
2023-01-29T15:22:46.226Z,0.90
2023-01-29T15:25:07.401Z,0.80
2023-01-29T15:27:19.435Z,0.90
2023-01-29T15:29:28.546Z,0.90
2023-01-29T15:31:33.751Z,0.90
2023-01-29T15:33:44.866Z,0.90
2023-01-29T15:35:58.796Z,0.80
2023-01-29T15:38:19.952Z,0.60
2023-01-29T15:40:25.616Z,0.30
2023-01-29T15:42:32.684Z,0.20
2023-01-29T15:44:38.009Z,0.20
2023-01-29T15:46:46.863Z,0.20
2023-01-29T15:48:56.325Z,0.10
2023-01-29T15:51:04.954Z,0.10
2023-01-29T15:53:16.249Z,0.20
2023-01-29T15:55:24.276Z,0.20
2023-01-29T15:57:37.662Z,0.10
2023-01-29T15:59:51.739Z,0.10
2023-01-29T16:01:57.043Z,0.10
2023-01-29T16:04:06.166Z,0.10
2023-01-29T16:06:11.707Z,0.20
2023-01-29T16:08:18.183Z,0.20
2023-01-29T16:10:26.015Z,0.10
2023-01-29T16:12:31.388Z,0.00
2023-01-29T16:14:37.199Z,0.00
2023-01-29T16:16:45.294Z,0.00
2023-01-29T16:18:59.906Z,0.00
2023-01-29T16:21:12.909Z,0.00
2023-01-29T16:23:22.216Z,0.00
2023-01-29T16:25:27.968Z,-0.10
2023-01-29T16:27:35.758Z,-0.20
2023-01-29T16:29:40.856Z,-0.20
2023-01-29T16:31:49.899Z,-0.20
2023-01-29T16:33:56.786Z,-0.10
2023-01-29T16:36:04.338Z,-0.20
2023-01-29T16:38:28.927Z,-0.20
2023-01-29T16:40:38.275Z,-0.30
2023-01-29T16:42:43.989Z,-0.50
2023-01-29T16:44:52.520Z,-0.70
2023-01-29T16:46:57.821Z,-0.70
2023-01-29T16:49:06.311Z,-0.60
2023-01-29T16:51:20.456Z,-0.60
2023-01-29T16:53:28.297Z,-0.70
2023-01-29T16:55:41.603Z,-0.70
2023-01-29T16:57:56.622Z,-0.70
2023-01-29T17:00:09.612Z,-0.60
2023-01-29T17:02:26.466Z,-0.60
2023-01-29T17:04:32.102Z,-0.60
2023-01-29T17:06:37.745Z,-0.60
2023-01-29T17:08:45.995Z,-0.60
2023-01-29T17:10:51.332Z,-0.60
2023-01-29T17:13:00.734Z,-0.70
2023-01-29T17:15:29.038Z,-0.60
2023-01-29T17:17:36.344Z,-0.60
2023-01-29T17:19:41.793Z,-0.70
2023-01-29T17:21:47.199Z,-0.70
2023-01-29T17:23:55.549Z,-0.70
2023-01-29T17:26:02.957Z,-0.80
2023-01-29T17:28:08.459Z,-0.80
2023-01-29T17:30:19.056Z,-0.80
2023-01-29T17:32:24.068Z,-0.80
2023-01-29T17:34:29.637Z,-0.80
2023-01-29T17:36:35.247Z,-0.90
2023-01-29T17:38:40.694Z,-1.00
2023-01-29T17:40:54.015Z,-1.10
2023-01-29T17:42:58.946Z,-1.20
2023-01-29T17:45:03.810Z,-1.10
2023-01-29T17:47:10.714Z,-1.20
2023-01-29T17:49:25.941Z,-1.10
2023-01-29T17:53:45.519Z,-1.30
2023-01-29T17:55:54.364Z,-1.30
2023-01-29T17:57:59.335Z,-1.40
2023-01-29T18:00:05.231Z,-1.30
2023-01-29T18:02:28.904Z,-1.30
2023-01-29T18:04:36.719Z,-1.30
2023-01-29T18:06:43.958Z,-1.20
2023-01-29T18:08:48.959Z,-1.20
2023-01-29T18:10:56.472Z,-1.20
2023-01-29T18:13:01.642Z,-1.20
2023-01-29T18:15:07.119Z,-1.20
2023-01-29T18:17:12.201Z,-1.20
2023-01-29T18:19:23.257Z,-1.50
2023-01-29T18:21:28.157Z,-1.50
2023-01-29T18:23:33.420Z,-1.30
2023-01-29T18:25:38.565Z,-1.30
2023-01-29T18:27:46.647Z,-1.30
2023-01-29T18:29:51.634Z,-1.30
2023-01-29T18:31:56.596Z,-1.20
2023-01-29T18:34:01.616Z,-1.20
2023-01-29T18:36:07.521Z,-1.20
2023-01-29T18:38:12.424Z,-1.30
2023-01-29T18:40:17.874Z,-1.30
2023-01-29T18:42:22.831Z,-1.30
2023-01-29T18:44:30.544Z,-1.30
2023-01-29T18:46:36.123Z,-1.20
2023-01-29T18:48:42.757Z,-1.20
2023-01-29T18:50:47.948Z,-1.40
2023-01-29T18:52:53.058Z,-1.60
2023-01-29T18:54:58.308Z,-1.60
2023-01-29T18:57:08.669Z,-1.50
2023-01-29T18:59:19.295Z,-1.50
2023-01-29T19:01:28.128Z,-1.60
2023-01-29T19:03:33.159Z,-1.60
2023-01-29T19:05:38.188Z,-1.50
2023-01-29T19:07:43.883Z,-1.40
2023-01-29T19:09:50.398Z,-1.40
2023-01-29T19:11:55.511Z,-1.30
2023-01-29T19:14:00.685Z,-1.30
2023-01-29T19:16:09.762Z,-1.30
2023-01-29T19:18:17.649Z,-1.30
2023-01-29T19:20:23.150Z,-1.30
2023-01-29T19:22:28.156Z,-1.30
2023-01-29T19:24:38.704Z,-1.30
2023-01-29T19:26:43.689Z,-1.30
2023-01-29T19:28:48.695Z,-1.30
2023-01-29T19:30:53.609Z,-1.20
2023-01-29T19:32:58.558Z,-1.20
2023-01-29T19:35:06.156Z,-1.20
2023-01-29T19:37:11.880Z,-1.20
2023-01-29T19:39:17.060Z,-1.20
2023-01-29T19:41:22.134Z,-1.20
2023-01-29T19:43:27.112Z,-1.20
2023-01-29T19:45:37.127Z,-1.30
2023-01-29T19:47:56.741Z,-1.20
2023-01-29T19:50:01.811Z,-1.20
2023-01-29T19:52:15.017Z,-1.20
2023-01-29T19:54:21.399Z,-1.20
2023-01-29T19:56:26.320Z,-1.20
2023-01-29T19:58:32.125Z,-1.10
2023-01-29T20:00:37.083Z,-1.20
2023-01-29T20:02:41.978Z,-1.40
2023-01-29T20:04:46.903Z,-1.30
2023-01-29T20:06:51.849Z,-1.30
2023-01-29T20:09:02.137Z,-1.20
2023-01-29T20:11:09.748Z,-1.20
2023-01-29T20:13:14.718Z,-1.20
2023-01-29T20:15:19.805Z,-1.20
2023-01-29T20:17:24.697Z,-1.10
2023-01-29T20:19:29.578Z,-1.10
2023-01-29T20:21:34.451Z,-1.00
2023-01-29T20:23:40.891Z,-1.00
2023-01-29T20:25:48.684Z,-1.00
2023-01-29T20:27:54.334Z,-1.00
2023-01-29T20:29:59.771Z,-0.90
2023-01-29T20:32:04.728Z,-1.00
2023-01-29T20:34:09.849Z,-1.00
2023-01-29T20:36:15.872Z,-1.00
2023-01-29T20:38:20.757Z,-0.90
2023-01-29T20:40:25.801Z,-0.90
2023-01-29T20:42:33.272Z,-0.90
2023-01-29T20:44:38.216Z,-0.90
2023-01-29T20:46:43.153Z,-0.90
2023-01-29T20:48:49.154Z,-0.80
2023-01-29T20:50:54.019Z,-0.80
2023-01-29T20:52:58.936Z,-0.90
2023-01-29T20:55:04.132Z,-0.90
2023-01-29T20:57:09.708Z,-0.80
2023-01-29T20:59:17.386Z,-0.80
2023-01-29T21:01:24.152Z,-0.80
2023-01-29T21:03:29.064Z,-0.80
2023-01-29T21:05:33.983Z,-0.80
2023-01-29T21:07:38.889Z,-0.80
2023-01-29T21:09:43.955Z,-0.80
2023-01-29T21:11:48.959Z,-0.80
2023-01-29T21:13:57.661Z,-0.80
2023-01-29T21:16:05.508Z,-0.80
2023-01-29T21:18:10.445Z,-0.80
2023-01-29T21:20:16.924Z,-0.80
2023-01-29T21:22:24.059Z,-0.90
2023-01-29T21:24:29.303Z,-0.80
2023-01-29T21:26:34.236Z,-0.80
2023-01-29T21:28:39.157Z,-0.90
2023-01-29T21:30:44.466Z,-0.90
2023-01-29T21:32:52.255Z,-0.80
2023-01-29T21:34:57.169Z,-0.80
2023-01-29T21:37:02.120Z,-0.90
2023-01-29T21:39:16.634Z,-0.90
2023-01-29T21:41:41.591Z,-0.90
2023-01-29T21:43:45.469Z,-0.80
2023-01-29T21:45:57.254Z,-0.80
2023-01-29T21:48:04.758Z,-0.80
2023-01-29T21:50:11.341Z,-0.90
2023-01-29T21:52:17.303Z,-0.90
2023-01-29T21:54:22.180Z,-0.90
2023-01-29T21:56:27.130Z,-0.80
2023-01-29T21:58:32.617Z,-0.90
2023-01-29T22:00:37.601Z,-0.90
2023-01-29T22:02:42.687Z,-0.90
2023-01-29T22:04:50.392Z,-0.90
2023-01-29T22:06:55.713Z,-0.90
2023-01-29T22:09:00.720Z,-0.80
2023-01-29T22:11:09.045Z,-0.80
2023-01-29T22:13:14.458Z,-0.90
2023-01-29T22:15:21.116Z,-0.80
2023-01-29T22:17:27.761Z,-0.90
2023-01-29T22:19:32.660Z,-0.90
2023-01-29T22:21:40.132Z,-0.90
2023-01-29T22:23:45.700Z,-0.90
2023-01-29T22:25:50.952Z,-1.00
2023-01-29T22:27:56.026Z,-1.00
2023-01-29T22:30:00.923Z,-1.00
2023-01-29T22:32:06.137Z,-1.00
2023-01-29T22:34:12.152Z,-1.00
2023-01-29T22:36:20.038Z,-1.00
2023-01-29T22:38:28.149Z,-0.90
2023-01-29T22:40:33.264Z,-1.00
2023-01-29T22:42:38.186Z,-1.00
2023-01-29T22:44:43.756Z,-1.00
2023-01-29T22:46:48.990Z,-1.00
2023-01-29T22:48:54.606Z,-1.00
2023-01-29T22:51:10.103Z,-1.00
2023-01-29T22:53:15.166Z,-1.00
2023-01-29T22:55:23.223Z,-1.10
2023-01-29T22:57:28.289Z,-1.10
2023-01-29T22:59:33.264Z,-1.00
2023-01-29T23:01:38.745Z,-1.00
2023-01-29T23:03:43.684Z,-1.00
2023-01-29T23:05:48.937Z,-1.00
2023-01-29T23:07:53.885Z,-1.00
2023-01-29T23:09:59.620Z,-1.00
2023-01-29T23:12:08.628Z,-1.00
2023-01-29T23:14:13.516Z,-0.90
2023-01-29T23:16:20.991Z,-1.00
2023-01-29T23:18:25.908Z,-1.00
2023-01-29T23:20:31.260Z,-1.00
2023-01-29T23:22:36.645Z,-0.90
2023-01-29T23:24:41.564Z,-1.00
2023-01-29T23:26:59.444Z,-0.90
2023-01-29T23:29:07.035Z,-0.90
2023-01-29T23:31:12.014Z,-0.90
2023-01-29T23:33:17.434Z,-1.00
2023-01-29T23:35:22.337Z,-1.00
2023-01-29T23:37:27.899Z,-1.00
2023-01-29T23:39:33.142Z,-1.00
2023-01-29T23:41:38.573Z,-1.00
2023-01-29T23:43:43.861Z,-1.00
2023-01-29T23:45:51.702Z,-1.00
2023-01-29T23:47:56.496Z,-0.90
2023-01-29T23:50:02.084Z,-1.00
2023-01-29T23:52:07.822Z,-0.90
2023-01-29T23:54:13.316Z,-0.90
2023-01-29T23:56:19.588Z,-1.00
2023-01-29T23:58:24.467Z,-1.00
